Time;durP1;ratioP1;P1;durP2;ratioP2;P2;SDS_P1;SDS_P2;PMS_P1;PMS_P2;Temp;Humidity;BMP_temperature;BMP_pressure;BME280_temperature;BME280_humidity;BME280_pressure;Samples;Min_cycle;Max_cycle;Signal;HPM_P1;HPM_P2
2021/10/14 00:08:07;;;;;;;0.27;0.27;;;16.00;99.90;;;;;;20741668;23;20614;-74
2021/10/14 00:18:10;;;;;;;1.23;0.50;;;16.20;99.90;;;;;;20779291;28;20214;-73
2021/10/14 00:28:15;;;;;;;1.00;1.00;;;16.20;99.90;;;;;;20819669;28;20233;-73
2021/10/14 00:38:19;;;;;;;1.80;0.67;;;16.20;99.90;;;;;;20761565;28;20191;-72
2021/10/14 00:48:24;;;;;;;0.30;0.30;;;16.00;99.90;;;;;;20736578;28;20223;-73
2021/10/14 00:58:28;;;;;;;1.03;0.47;;;15.90;99.90;;;;;;20735463;28;20203;-73
2021/10/14 01:08:33;;;;;;;4.33;1.07;;;15.90;99.90;;;;;;20874884;23;20241;-75
2021/10/14 01:18:36;;;;;;;0.20;0.17;;;15.90;99.90;;;;;;20697642;28;20194;-74
2021/10/14 01:28:42;;;;;;;1.13;0.67;;;16.00;99.90;;;;;;20733873;28;20276;-76
2021/10/14 01:38:46;;;;;;;0.40;0.40;;;16.00;99.90;;;;;;20670502;28;20214;-78
2021/10/14 01:48:51;;;;;;;0.40;0.40;;;15.90;99.90;;;;;;20652364;28;20226;-77
2021/10/14 02:09:15;;;;;;;0.77;0.37;;;16.10;99.90;;;;;;20348343;29;20253;-74
2021/10/14 02:19:18;;;;;;;0.57;0.50;;;16.10;99.90;;;;;;20397079;29;20582;-73
2021/10/14 02:29:23;;;;;;;0.60;0.60;;;16.30;99.90;;;;;;20426440;29;20225;-74
2021/10/14 02:39:27;;;;;;;0.30;0.30;;;16.70;99.90;;;;;;20358987;29;20202;-74
2021/10/14 02:49:32;;;;;;;0.20;0.20;;;16.70;99.90;;;;;;20346629;29;20237;-73
2021/10/14 02:59:35;;;;;;;0.50;0.50;;;16.90;99.90;;;;;;20361416;23;20660;-76
2021/10/14 03:09:40;;;;;;;0.37;0.30;;;16.70;99.90;;;;;;20423444;29;20225;-77
2021/10/14 03:19:44;;;;;;;1.23;0.70;;;16.50;99.90;;;;;;20475652;29;20196;-74
2021/10/14 03:29:49;;;;;;;0.40;0.40;;;16.20;99.90;;;;;;20515955;28;20221;-73
2021/10/14 03:39:52;;;;;;;0.20;0.20;;;16.00;99.90;;;;;;20430650;28;20213;-74
2021/10/14 03:49:57;;;;;;;0.50;0.37;;;16.10;99.90;;;;;;20418298;29;20553;-74
2021/10/14 04:00:01;;;;;;;0.83;0.60;;;16.10;99.90;;;;;;20417734;29;20221;-75
2021/10/14 04:10:08;;;;;;;0.20;0.10;;;16.00;99.90;;;;;;20416391;29;20606;-75
2021/10/14 04:20:12;;;;;;;1.33;0.40;;;15.90;99.90;;;;;;20472537;28;20212;-78
2021/10/14 04:30:17;;;;;;;0.30;0.30;;;15.90;99.90;;;;;;20495996;28;20232;-77
2021/10/14 04:40:20;;;;;;;0.20;0.20;;;16.10;99.90;;;;;;20421220;28;20197;-79
2021/10/14 04:50:25;;;;;;;0.37;0.37;;;16.20;99.90;;;;;;20416301;29;20240;-81
2021/10/14 05:00:29;;;;;;;0.33;0.27;;;16.40;99.90;;;;;;20414733;29;20232;-76
2021/10/14 05:10:35;;;;;;;0.30;0.30;;;16.60;99.90;;;;;;20412342;29;20252;-78
2021/10/14 05:20:39;;;;;;;0.43;0.43;;;16.40;99.90;;;;;;20469388;29;20196;-78
2021/10/14 05:30:45;;;;;;;0.20;0.20;;;16.20;99.90;;;;;;20490846;28;20287;-75
2021/10/14 05:40:50;;;;;;;0.40;0.33;;;16.10;99.90;;;;;;20489464;28;20295;-77
2021/10/14 05:50:55;;;;;;;0.60;0.60;;;16.10;99.90;;;;;;20491177;28;20236;-74
2021/10/14 06:00:58;;;;;;;0.60;0.60;;;16.10;99.90;;;;;;20485073;28;20234;-68
2021/10/14 06:11:05;;;;;;;4.23;0.97;;;16.20;99.90;;;;;;20487973;28;20251;-75
2021/10/14 06:21:09;;;;;;;0.60;0.60;;;16.60;99.90;;;;;;20425738;28;20670;-74
2021/10/14 06:31:14;;;;;;;0.77;0.70;;;16.70;99.90;;;;;;20409371;29;20248;-79
2021/10/14 06:41:17;;;;;;;0.40;0.40;;;16.80;99.90;;;;;;20411886;29;20229;-77
2021/10/14 06:51:22;;;;;;;0.30;0.30;;;16.90;99.90;;;;;;20427209;29;20251;-81
2021/10/14 07:01:25;;;;;;;0.63;0.63;;;16.80;99.90;;;;;;20426172;29;20237;-78
2021/10/14 07:11:32;;;;;;;0.20;0.10;;;16.90;99.90;;;;;;20422244;29;20892;-78
2021/10/14 07:33:40;;;;;;;0.30;0.30;;;16.90;99.90;;;;;;20666491;23;20264;-79
2021/10/14 07:43:44;;;;;;;0.40;0.40;;;16.90;99.90;;;;;;20736508;28;20202;-77
2021/10/14 07:53:50;;;;;;;0.97;0.73;;;17.40;99.90;;;;;;20740443;28;20215;-71
2021/10/14 08:03:53;;;;;;;0.70;0.50;;;17.80;99.90;;;;;;20739676;28;20277;-74
2021/10/14 08:13:59;;;;;;;0.90;0.67;;;18.20;99.90;;;;;;20741235;28;20225;-73
2021/10/14 08:24:02;;;;;;;0.60;0.60;;;18.40;99.90;;;;;;20796826;28;20191;-77
2021/10/14 08:34:10;;;;;;;0.33;0.20;;;18.50;99.90;;;;;;20735110;28;20258;-74
2021/10/14 08:44:19;;;;;;;0.47;0.27;;;18.40;99.90;;;;;;20741166;28;20183;-78
2021/10/14 08:54:24;;;;;;;0.50;0.50;;;19.00;99.90;;;;;;20739641;28;20219;-81
2021/10/14 09:04:31;;;;;;;0.77;0.30;;;19.20;99.90;;;;;;20735806;28;20436;-80
2021/10/14 09:14:54;;;;;;;1.60;0.97;;;19.40;99.90;;;;;;20748501;28;20213;-76
2021/10/14 09:24:58;;;;;;;0.93;0.60;;;19.70;99.90;;;;;;20815618;28;20205;-82
2021/10/14 09:35:05;;;;;;;0.80;0.80;;;19.70;99.90;;;;;;20815098;28;20616;-81
2021/10/14 09:45:24;;;;;;;0.20;0.20;;;20.00;99.90;;;;;;20787422;28;20249;-80
2021/10/14 09:55:29;;;;;;;0.60;0.27;;;20.50;99.90;;;;;;20766735;28;20633;-79
2021/10/14 10:05:34;;;;;;;0.23;0.23;;;20.80;99.90;;;;;;20781961;28;20619;-76
2021/10/14 10:15:42;;;;;;;0.30;0.30;;;20.90;99.90;;;;;;20814727;28;20229;-79
2021/10/14 10:25:47;;;;;;;0.80;0.80;;;20.60;99.90;;;;;;20748867;28;20214;-79
2021/10/14 10:35:52;;;;;;;0.20;0.20;;;21.30;99.90;;;;;;20743659;28;20683;-78
2021/10/14 10:45:57;;;;;;;9.57;1.03;;;21.40;99.90;;;;;;20743172;28;20187;-76
2021/10/14 10:56:03;;;;;;;0.93;0.73;;;21.70;99.90;;;;;;20790957;28;20295;-77
2021/10/14 11:06:09;;;;;;;0.30;0.23;;;21.70;99.90;;;;;;20826029;28;20198;-77
2021/10/14 11:16:16;;;;;;;0.53;0.40;;;21.60;99.90;;;;;;20822839;28;20336;-79
2021/10/14 11:26:29;;;;;;;1.13;0.50;;;22.20;99.90;;;;;;20822947;28;20670;-77
2021/10/14 11:36:38;;;;;;;0.50;0.30;;;22.80;99.90;;;;;;20822859;28;20344;-77
2021/10/14 11:46:54;;;;;;;0.77;0.75;;;23.40;99.90;;;;;;20780554;28;20187;-80
2021/10/14 11:57:04;;;;;;;0.20;0.20;;;23.90;99.90;;;;;;20740407;28;20731;-81
2021/10/14 12:07:08;;;;;;;0.20;0.20;;;24.10;99.90;;;;;;20739180;28;20679;-80
2021/10/14 12:17:16;;;;;;;0.20;0.20;;;23.90;99.90;;;;;;20739518;28;20583;-76
2021/10/14 12:48:39;;;;;;;0.47;0.30;;;24.70;99.90;;;;;;20657853;28;20195;-78
2021/10/14 13:10:04;;;;;;;1.08;0.60;;;25.50;99.90;;;;;;20665825;23;20693;-77
2021/10/14 13:20:12;;;;;;;0.50;0.30;;;25.70;99.90;;;;;;20655877;28;20195;-77
2021/10/14 13:30:31;;;;;;;2.50;0.65;;;25.60;99.90;;;;;;20652629;28;20227;-76
2021/10/14 13:40:36;;;;;;;0.40;0.40;;;25.70;99.90;;;;;;20653379;28;20200;-76
2021/10/14 13:50:45;;;;;;;0.40;0.20;;;26.30;99.90;;;;;;20657427;28;20519;-79
2021/10/14 14:00:49;;;;;;;0.20;0.20;;;25.80;99.90;;;;;;20678745;28;20235;-80
2021/10/14 14:10:55;;;;;;;0.30;0.30;;;26.30;99.90;;;;;;20676587;28;20246;-78
2021/10/14 14:21:00;;;;;;;0.57;0.45;;;26.70;99.90;;;;;;20678932;28;20278;-75
2021/10/14 14:31:05;;;;;;;0.80;0.47;;;26.00;99.90;;;;;;20679114;28;20223;-81
2021/10/14 14:41:09;;;;;;;1.38;0.63;;;26.00;99.90;;;;;;20675325;28;20641;-78
2021/10/14 14:51:14;;;;;;;9.40;0.82;;;26.00;99.90;;;;;;20676761;28;20251;-79
2021/10/14 15:01:18;;;;;;;3.83;0.90;;;25.80;99.90;;;;;;20693838;28;20645;-79
2021/10/14 15:11:29;;;;;;;0.75;0.75;;;25.10;99.90;;;;;;20674331;28;20230;-76
2021/10/14 15:21:34;;;;;;;0.70;0.25;;;24.00;99.90;;;;;;20673700;28;20199;-81
2021/10/14 15:31:40;;;;;;;0.57;0.50;;;23.70;99.90;;;;;;20663745;28;20215;-81
2021/10/14 15:41:44;;;;;;;0.90;0.73;;;22.70;99.90;;;;;;20659379;28;20196;-81
2021/10/14 15:51:50;;;;;;;4.93;0.70;;;21.80;99.90;;;;;;20663041;28;20215;-79
2021/10/14 16:01:54;;;;;;;0.40;0.30;;;21.30;99.90;;;;;;20665739;28;20587;-86
2021/10/14 16:12:01;;;;;;;0.33;0.33;;;21.10;99.90;;;;;;20662882;28;20234;-80
2021/10/14 16:22:05;;;;;;;0.57;0.57;;;20.70;99.90;;;;;;20664173;28;20222;-86
2021/10/14 16:32:12;;;;;;;0.50;0.43;;;20.50;99.90;;;;;;20660381;28;20231;-81
2021/10/14 16:42:16;;;;;;;1.60;0.60;;;20.10;99.90;;;;;;20658880;28;20747;-77
2021/10/14 16:52:21;;;;;;;0.67;0.67;;;20.00;99.90;;;;;;20657253;28;20215;-82
2021/10/14 17:02:25;;;;;;;0.40;0.40;;;19.90;99.90;;;;;;20659952;28;20319;-79
2021/10/14 17:12:30;;;;;;;1.10;1.00;;;19.80;99.90;;;;;;20654743;28;20215;-88
2021/10/14 17:43:19;;;;;;;1.00;0.70;;;19.50;99.90;;;;;;20659835;28;20202;-75
2021/10/14 17:53:24;;;;;;;1.00;0.40;;;19.40;99.90;;;;;;20629372;28;20302;-76
2021/10/14 18:03:30;;;;;;;0.60;0.40;;;19.30;99.90;;;;;;20569649;28;20224;-78
2021/10/14 18:34:32;;;;;;;1.23;0.63;;;18.50;99.90;;;;;;20599022;28;20226;-76
2021/10/14 18:44:36;;;;;;;1.83;0.63;;;18.20;99.90;;;;;;20659913;28;20722;-75
2021/10/14 18:54:41;;;;;;;0.77;0.77;;;18.00;99.90;;;;;;20660177;28;20226;-76
2021/10/14 19:04:53;;;;;;;4.63;1.23;;;18.00;99.90;;;;;;20640986;28;20678;-73
2021/10/14 19:15:03;;;;;;;0.73;0.23;;;18.10;99.90;;;;;;20579117;28;20231;-76
2021/10/14 20:27:29;;;;;;;0.67;0.67;;;17.50;99.90;;;;;;20654903;28;20672;-77
2021/10/14 20:37:34;;;;;;;0.30;0.30;;;17.40;99.90;;;;;;20654604;28;20255;-75
2021/10/14 20:47:37;;;;;;;0.93;0.70;;;17.10;99.90;;;;;;20653584;28;20202;-77
2021/10/14 21:08:04;;;;;;;0.50;0.50;;;16.80;99.90;;;;;;20649108;28;20225;-77
2021/10/14 21:18:09;;;;;;;0.43;0.30;;;16.60;99.90;;;;;;20650777;28;20323;-76
2021/10/14 21:28:25;;;;;;;0.67;0.67;;;16.40;99.90;;;;;;20631655;28;20555;-76
2021/10/14 21:38:30;;;;;;;0.30;0.30;;;16.40;99.90;;;;;;20596448;28;20216;-75
2021/10/14 21:48:33;;;;;;;0.37;0.37;;;16.50;99.90;;;;;;20597554;28;20204;-74
2021/10/14 21:58:38;;;;;;;0.83;0.80;;;16.30;99.90;;;;;;20608090;28;20246;-73
2021/10/14 22:08:42;;;;;;;0.30;0.30;;;16.30;99.90;;;;;;20648488;28;20242;-74
2021/10/14 22:18:47;;;;;;;0.43;0.43;;;16.30;99.90;;;;;;20622314;28;20227;-73
2021/10/14 22:28:50;;;;;;;0.60;0.60;;;16.10;99.90;;;;;;20621251;28;20199;-74
2021/10/14 22:38:56;;;;;;;0.40;0.40;;;16.10;99.90;;;;;;20620972;28;20227;-75
2021/10/14 22:48:59;;;;;;;0.50;0.47;;;15.90;99.90;;;;;;20619161;28;20232;-75
2021/10/14 22:59:04;;;;;;;1.17;0.63;;;16.00;99.90;;;;;;20619076;28;20349;-75
2021/10/14 23:09:08;;;;;;;0.53;0.50;;;16.00;99.90;;;;;;20618708;28;20224;-76
2021/10/14 23:19:13;;;;;;;0.40;0.27;;;16.20;99.90;;;;;;20618011;28;20661;-76
2021/10/14 23:29:16;;;;;;;0.20;0.20;;;16.20;99.90;;;;;;20616826;28;20555;-75
2021/10/14 23:39:21;;;;;;;0.30;0.30;;;16.40;99.90;;;;;;20615908;28;20319;-75
2021/10/14 23:49:25;;;;;;;0.47;0.20;;;16.90;99.90;;;;;;20640949;28;20568;-76
2021/10/14 23:59:30;;;;;;;0.50;0.40;;;17.00;99.90;;;;;;20598737;23;20775;-73
